Time;durP1;ratioP1;P1;durP2;ratioP2;P2;SDS_P1;SDS_P2;PMS_P1;PMS_P2;Temp;Humidity;BMP_temperature;BMP_pressure;BME280_temperature;BME280_humidity;BME280_pressure;Samples;Min_cycle;Max_cycle;Signal;HPM_P1;HPM_P2
2021/12/05 00:23:10;;;;;;;28.48;11.25;;;;;;;;;;6168995;23;20005;-86
2021/12/05 00:25:50;;;;;;;27.25;11.77;;;4.90;99.90;;;;;;6170357;23;20235;-86
2021/12/05 00:42:06;;;;;;;25.92;11.20;;;4.90;99.90;;;;;;6144344;23;20141;-86
2021/12/05 01:00:39;;;;;;;23.30;10.18;;;4.80;99.90;;;;;;6135504;23;20013;-86
2021/12/05 01:14:27;;;;;;;17.75;8.45;;;4.80;99.90;;;;;;6109848;23;20017;-86
2021/12/05 01:17:03;;;;;;;20.85;8.60;;;4.80;99.90;;;;;;6104370;23;20006;-85
2021/12/05 01:19:32;;;;;;;19.52;7.88;;;4.80;99.90;;;;;;6139559;23;19997;-86
2021/12/05 01:22:05;;;;;;;21.85;8.60;;;4.80;99.90;;;;;;6140427;23;20302;-85
2021/12/05 01:24:53;;;;;;;19.42;7.75;;;5.40;99.90;;;;;;6164748;23;19993;-85
2021/12/05 01:27:43;;;;;;;22.67;8.38;;;4.70;99.90;;;;;;6140083;23;20212;-86
2021/12/05 01:30:25;;;;;;;19.80;7.95;;;4.70;99.90;;;;;;6143883;23;20005;-86
2021/12/05 01:33:03;;;;;;;18.98;8.02;;;4.60;99.90;;;;;;6094165;23;20009;-85
2021/12/05 01:35:50;;;;;;;19.90;8.00;;;;;;;;;;6115259;23;20008;-87
2021/12/05 01:39:29;;;;;;;19.27;7.88;;;;;;;;;;6143114;23;20072;-86
2021/12/05 02:37:19;;;;;;;14.55;6.45;;;4.40;99.90;;;;;;6164244;23;20307;-86
2021/12/05 02:40:18;;;;;;;16.95;7.05;;;;;;;;;;6157809;23;20052;-86
2021/12/05 02:43:31;;;;;;;16.00;6.88;;;4.40;99.90;;;;;;6163949;23;20107;-87
2021/12/05 02:45:45;;;;;;;16.77;6.32;;;4.40;99.90;;;;;;6123511;23;20009;-85
2021/12/05 02:48:20;;;;;;;17.08;6.80;;;4.40;99.90;;;;;;6139736;23;20129;-86
2021/12/05 02:50:57;;;;;;;17.23;6.45;;;4.40;99.90;;;;;;6115550;23;20060;-86
2021/12/05 02:56:37;;;;;;;16.15;6.90;;;4.40;99.90;;;;;;6022876;23;20283;-85
2021/12/05 02:59:20;;;;;;;12.23;6.50;;;4.30;99.90;;;;;;6102332;23;20279;-86
2021/12/05 03:01:54;;;;;;;14.70;6.80;;;;;;;;;;6164267;23;20288;-86
2021/12/05 03:04:23;;;;;;;18.83;6.63;;;4.40;99.90;;;;;;6139243;23;20029;-86
2021/12/05 03:06:52;;;;;;;15.88;6.68;;;4.60;99.90;;;;;;6164369;23;20013;-85
2021/12/05 03:09:22;;;;;;;15.50;6.53;;;4.40;99.90;;;;;;6115444;23;20047;-85
2021/12/05 03:11:53;;;;;;;16.25;7.10;;;;;;;;;;6138051;23;20013;-87
2021/12/05 03:14:23;;;;;;;14.07;6.60;;;4.40;99.90;;;;;;6163971;23;20001;-85
2021/12/05 03:16:52;;;;;;;18.60;6.93;;;4.40;99.90;;;;;;6164074;23;20130;-86
2021/12/05 03:19:34;;;;;;;16.35;6.72;;;4.50;99.90;;;;;;6163349;23;20006;-86
2021/12/05 03:22:01;;;;;;;17.50;6.38;;;;;;;;;;6114422;23;20008;-86
2021/12/05 03:24:29;;;;;;;19.65;6.93;;;4.50;99.90;;;;;;6139246;23;20033;-86
2021/12/05 03:26:58;;;;;;;17.73;7.03;;;4.50;99.90;;;;;;6139310;23;20075;-85
2021/12/05 03:29:26;;;;;;;15.00;6.70;;;4.50;99.90;;;;;;6139108;23;20002;-86
2021/12/05 03:31:56;;;;;;;17.98;7.10;;;4.50;99.90;;;;;;6139635;23;20014;-85
2021/12/05 03:34:25;;;;;;;18.00;7.22;;;4.50;99.90;;;;;;6164230;23;20006;-86
2021/12/05 03:36:55;;;;;;;17.45;7.15;;;4.50;99.90;;;;;;6163884;23;20040;-85
2021/12/05 03:39:22;;;;;;;20.45;7.13;;;;;;;;;;6143595;23;20244;-86
2021/12/05 03:42:00;;;;;;;19.67;7.88;;;4.50;99.90;;;;;;6168776;23;20009;-85
2021/12/05 03:44:33;;;;;;;17.60;7.40;;;4.90;99.90;;;;;;6195161;23;20116;-86
2021/12/05 03:47:05;;;;;;;15.45;7.20;;;4.50;99.90;;;;;;6193654;23;20015;-85
2021/12/05 03:49:32;;;;;;;18.25;8.15;;;4.50;99.90;;;;;;6168812;23;20008;-86
2021/12/05 03:52:05;;;;;;;20.92;7.80;;;4.50;99.90;;;;;;6169300;23;20255;-86
2021/12/05 03:54:31;;;;;;;20.95;8.40;;;4.50;99.90;;;;;;6169756;23;20039;-85
2021/12/05 03:56:59;;;;;;;19.95;8.60;;;2.30;99.90;;;;;;6170737;23;20231;-85
2021/12/05 03:59:28;;;;;;;20.75;9.00;;;4.50;99.90;;;;;;6195328;23;20005;-86
2021/12/05 04:01:57;;;;;;;17.58;8.48;;;5.30;99.90;;;;;;6170512;23;20275;-85
2021/12/05 04:04:24;;;;;;;21.63;9.18;;;3.60;99.90;;;;;;6170643;23;20001;-85
2021/12/05 04:06:50;;;;;;;17.80;8.40;;;4.50;99.90;;;;;;6170630;23;20187;-84
2021/12/05 04:09:18;;;;;;;16.90;8.88;;;4.50;99.90;;;;;;6197088;23;20291;-86
2021/12/05 04:11:57;;;;;;;24.42;10.18;;;4.80;99.90;;;;;;6169991;23;20004;-85
2021/12/05 04:14:26;;;;;;;20.85;10.20;;;4.50;99.90;;;;;;6195452;23;20045;-86
2021/12/05 04:16:52;;;;;;;21.00;10.23;;;4.50;99.90;;;;;;6169485;23;20005;-86
2021/12/05 04:19:19;;;;;;;25.40;10.13;;;4.40;99.90;;;;;;6122340;23;20269;-86
2021/12/05 04:21:45;;;;;;;19.55;9.80;;;4.40;99.90;;;;;;6124009;23;20001;-86
2021/12/05 04:24:12;;;;;;;20.73;10.13;;;4.30;99.90;;;;;;6170984;23;20001;-85
2021/12/05 04:26:41;;;;;;;19.70;10.23;;;4.40;99.90;;;;;;6123467;23;20007;-87
2021/12/05 04:29:08;;;;;;;26.10;10.80;;;4.40;99.90;;;;;;6146731;23;20011;-85
2021/12/05 04:31:36;;;;;;;25.30;10.82;;;4.40;99.90;;;;;;6171399;23;20033;-86
2021/12/05 04:34:03;;;;;;;22.90;11.13;;;4.30;99.90;;;;;;6196960;23;20001;-86
2021/12/05 04:36:35;;;;;;;21.85;11.15;;;6.00;99.90;;;;;;6123932;23;20184;-86
2021/12/05 04:39:01;;;;;;;24.00;11.23;;;4.90;99.90;;;;;;6140115;23;20188;-86
2021/12/05 04:41:27;;;;;;;27.77;12.18;;;;;;;;;;6166896;23;20244;-86
2021/12/05 04:43:54;;;;;;;26.65;11.30;;;;;;;;;;6142651;23;20033;-85
2021/12/05 04:46:25;;;;;;;22.38;10.77;;;4.30;99.90;;;;;;6142036;23;20016;-86
2021/12/05 04:48:53;;;;;;;23.45;11.55;;;4.30;99.90;;;;;;6142379;23;20151;-85
2021/12/05 04:51:25;;;;;;;23.60;11.75;;;4.30;99.90;;;;;;6117166;23;20005;-85
2021/12/05 04:53:51;;;;;;;25.83;11.57;;;4.30;99.90;;;;;;6167693;23;20040;-85
2021/12/05 04:56:22;;;;;;;21.63;11.38;;;4.30;99.90;;;;;;6167489;23;20001;-86
2021/12/05 04:58:48;;;;;;;26.95;12.02;;;;;;;;;;6140820;23;20006;-85
2021/12/05 05:01:17;;;;;;;27.92;12.13;;;4.30;99.90;;;;;;6140395;23;20310;-85
2021/12/05 05:03:46;;;;;;;22.92;11.90;;;5.70;99.90;;;;;;6140348;23;20192;-86
2021/12/05 05:06:15;;;;;;;31.98;12.93;;;4.40;99.90;;;;;;6140345;23;20009;-86
2021/12/05 05:08:48;;;;;;;27.50;11.98;;;4.30;99.90;;;;;;6165334;23;20013;-86
2021/12/05 05:11:17;;;;;;;25.83;11.52;;;5.40;99.90;;;;;;6140361;23;20068;-85
2021/12/05 05:13:47;;;;;;;27.65;11.98;;;4.30;99.90;;;;;;6165800;23;20060;-85
2021/12/05 05:16:20;;;;;;;24.67;11.70;;;4.30;99.90;;;;;;6164832;23;20010;-85
2021/12/05 05:18:52;;;;;;;;;;;5.10;99.90;;;;;;6140741;23;20006;-86
2021/12/05 05:21:40;;;;;;;27.35;11.20;;;5.20;99.90;;;;;;6140536;23;19931;-85
2021/12/05 05:27:16;;;;;;;27.55;11.20;;;5.00;99.90;;;;;;6140385;23;20010;-86
2021/12/05 05:46:04;;;;;;;21.95;10.13;;;4.30;99.90;;;;;;6139662;23;20009;-85
2021/12/05 05:51:17;;;;;;;22.88;10.05;;;4.20;99.90;;;;;;6165786;23;20013;-85
2021/12/05 05:53:47;;;;;;;22.05;9.55;;;4.30;99.90;;;;;;6091718;23;20013;-86
2021/12/05 05:56:18;;;;;;;21.25;9.20;;;;;;;;;;6139569;23;20066;-86
2021/12/05 05:58:57;;;;;;;21.60;8.98;;;4.20;99.90;;;;;;6164418;23;20014;-85
2021/12/05 06:01:58;;;;;;;23.55;9.73;;;4.30;99.90;;;;;;6139278;23;20041;-85
2021/12/05 06:04:09;;;;;;;22.02;9.25;;;4.30;99.90;;;;;;6128954;23;20013;-84
2021/12/05 06:06:35;;;;;;;22.08;9.20;;;5.20;99.90;;;;;;6115400;23;20001;-85
2021/12/05 06:09:02;;;;;;;25.75;9.60;;;4.30;99.90;;;;;;6140322;23;20040;-85
2021/12/05 06:11:28;;;;;;;22.80;8.57;;;3.50;99.90;;;;;;6091393;23;20075;-85
2021/12/05 06:13:54;;;;;;;19.17;8.27;;;5.20;99.90;;;;;;6139692;23;20006;-85
2021/12/05 06:16:23;;;;;;;23.95;8.80;;;4.90;99.90;;;;;;6114861;23;20012;-86
2021/12/05 06:18:49;;;;;;;23.85;9.50;;;5.50;99.90;;;;;;6139371;23;19998;-85
2021/12/05 06:21:16;;;;;;;20.80;7.57;;;4.60;99.90;;;;;;6144637;23;20009;-84
2021/12/05 06:23:43;;;;;;;22.30;8.23;;;4.20;99.90;;;;;;6164332;23;20007;-85
2021/12/05 06:26:11;;;;;;;21.77;8.15;;;5.70;99.90;;;;;;6115512;23;20001;-85
2021/12/05 06:28:43;;;;;;;20.20;7.88;;;4.80;99.90;;;;;;6115379;23;20259;-85
2021/12/05 06:47:54;;;;;;;20.77;7.03;;;4.00;99.90;;;;;;6139416;23;20009;-86
2021/12/05 06:50:20;;;;;;;18.33;7.05;;;4.10;99.90;;;;;;6163797;23;20052;-86
2021/12/05 06:52:46;;;;;;;16.92;6.97;;;5.60;99.90;;;;;;6165540;23;20156;-85
2021/12/05 06:55:22;;;;;;;20.42;7.07;;;4.10;99.90;;;;;;6163977;23;20001;-85
2021/12/05 06:57:50;;;;;;;23.63;7.60;;;4.10;99.90;;;;;;6090836;23;20307;-86
2021/12/05 07:00:26;;;;;;;17.50;6.70;;;4.10;99.90;;;;;;6138991;23;20205;-85
2021/12/05 07:02:55;;;;;;;19.05;6.57;;;5.30;99.90;;;;;;6139337;23;19994;-85
2021/12/05 07:08:12;;;;;;;16.45;6.28;;;4.10;99.90;;;;;;6139576;23;20157;-84
2021/12/05 07:10:48;;;;;;;17.23;6.00;;;;;;;;;;6163475;23;20342;-86
2021/12/05 07:26:51;;;;;;;19.10;6.53;;;4.10;99.90;;;;;;6163584;23;20009;-85
2021/12/05 07:43:13;;;;;;;18.98;6.82;;;5.20;99.90;;;;;;6134327;23;20021;-85
2021/12/05 07:45:52;;;;;;;20.83;7.03;;;4.10;99.90;;;;;;6140903;23;19998;-85
2021/12/05 07:48:23;;;;;;;17.00;6.80;;;4.00;99.90;;;;;;6141179;23;20002;-84
2021/12/05 07:53:31;;;;;;;20.42;7.25;;;4.10;99.90;;;;;;6139828;23;20006;-86
2021/12/05 07:55:59;;;;;;;20.75;7.70;;;4.00;99.90;;;;;;6140749;23;20048;-85
2021/12/05 08:01:20;;;;;;;18.55;7.05;;;5.00;99.90;;;;;;6165614;23;20009;-83
2021/12/05 08:15:14;;;;;;;20.08;7.60;;;4.30;99.90;;;;;;6120941;23;20346;-84
2021/12/05 08:17:40;;;;;;;19.17;7.38;;;;;;;;;;6140047;23;20002;-85
2021/12/05 08:20:11;;;;;;;20.30;7.43;;;4.00;99.90;;;;;;6140139;23;20005;-85
2021/12/05 08:22:39;;;;;;;20.30;8.05;;;4.10;99.90;;;;;;6116486;23;20062;-84
2021/12/05 08:25:11;;;;;;;18.25;7.72;;;4.10;99.90;;;;;;6140658;23;20300;-84
2021/12/05 08:27:40;;;;;;;20.42;7.70;;;4.10;99.90;;;;;;6116303;23;20004;-85
2021/12/05 08:30:14;;;;;;;17.98;7.97;;;5.60;99.90;;;;;;6140791;23;20265;-84
2021/12/05 08:35:23;;;;;;;22.95;8.57;;;4.10;99.90;;;;;;6140927;23;20025;-86
2021/12/05 08:41:11;;;;;;;19.15;8.77;;;4.20;99.90;;;;;;6173861;23;20053;-85
2021/12/05 09:08:43;;;;;;;20.67;9.18;;;4.40;99.90;;;;;;6186455;23;20019;-85
2021/12/05 10:09:08;;;;;;;20.77;10.35;;;4.50;99.90;;;;;;6169236;23;20001;-85
2021/12/05 10:12:04;;;;;;;19.50;10.65;;;;;;;;;;6169482;23;20178;-86
2021/12/05 10:15:11;;;;;;;;;;;;;;;;;;;;;
2021/12/05 10:38:50;;;;;;;21.17;10.05;;;4.50;99.90;;;;;;6158630;23;20180;-85
2021/12/05 10:41:47;;;;;;;23.80;9.95;;;4.50;99.90;;;;;;6162852;23;20016;-86
2021/12/05 10:44:16;;;;;;;21.35;10.23;;;;;;;;;;6137369;23;20012;-85
2021/12/05 10:47:01;;;;;;;19.13;9.57;;;4.50;99.90;;;;;;6138487;23;20244;-84
2021/12/05 10:49:33;;;;;;;22.38;9.15;;;4.50;99.90;;;;;;6138267;23;20005;-86
2021/12/05 10:52:22;;;;;;;21.23;9.93;;;4.60;99.90;;;;;;6138005;23;20005;-86
2021/12/05 10:55:11;;;;;;;20.67;9.68;;;4.60;99.90;;;;;;6162966;23;20036;-86
2021/12/05 10:57:57;;;;;;;19.65;9.93;;;4.60;99.90;;;;;;6162605;23;20040;-85
2021/12/05 11:00:32;;;;;;;18.60;9.77;;;4.60;99.90;;;;;;6137238;23;20020;-85
2021/12/05 11:03:32;;;;;;;20.55;9.63;;;4.60;99.90;;;;;;6162699;23;19998;-84
2021/12/05 11:06:05;;;;;;;23.75;9.98;;;;;;;;;;6113695;23;20029;-84
2021/12/05 11:08:41;;;;;;;21.27;9.18;;;4.70;99.90;;;;;;6138361;23;20224;-85
2021/12/05 11:11:19;;;;;;;18.23;9.50;;;;;;;;;;6090865;23;20012;-84
2021/12/05 11:14:08;;;;;;;;;;;;;;;;;;;;;
2021/12/05 11:17:03;;;;;;;17.58;8.98;;;4.70;99.90;;;;;;6148221;23;20264;-84
2021/12/05 11:19:37;;;;;;;19.13;9.70;;;;;;;;;;6112315;23;20120;-86
2021/12/05 11:22:38;;;;;;;21.98;9.38;;;4.80;99.90;;;;;;6114155;23;20053;-85
2021/12/05 11:25:29;;;;;;;23.05;9.32;;;4.80;99.90;;;;;;6107930;23;20001;-85
2021/12/05 11:28:24;;;;;;;18.48;10.18;;;4.90;99.90;;;;;;6127022;23;19997;-85
2021/12/05 11:31:05;;;;;;;23.52;9.85;;;4.90;99.90;;;;;;6134716;23;20017;-85
2021/12/05 11:33:45;;;;;;;18.63;9.73;;;4.90;99.90;;;;;;6138313;23;20033;-85
2021/12/05 11:36:33;;;;;;;19.92;9.90;;;4.90;99.90;;;;;;6137498;23;20053;-85
2021/12/05 11:39:43;;;;;;;17.30;9.73;;;5.00;99.90;;;;;;6141076;23;20006;-85
2021/12/05 11:42:26;;;;;;;21.85;9.90;;;;;;;;;;6144950;23;20013;-86
2021/12/05 11:45:06;;;;;;;19.02;9.73;;;5.20;99.90;;;;;;6144538;23;20238;-86
2021/12/05 11:47:51;;;;;;;18.27;10.35;;;5.00;99.90;;;;;;6143338;23;19997;-86
2021/12/05 11:53:46;;;;;;;21.35;10.07;;;5.20;99.90;;;;;;6191548;23;20013;-85
2021/12/05 11:56:45;;;;;;;21.15;10.00;;;5.30;99.90;;;;;;6142598;23;20000;-84
2021/12/05 11:59:40;;;;;;;22.42;10.25;;;5.50;99.90;;;;;;6159227;23;20005;-85
2021/12/05 12:02:32;;;;;;;21.40;11.20;;;;;;;;;;6167706;23;20011;-85
2021/12/05 12:05:18;;;;;;;23.88;10.77;;;5.50;99.90;;;;;;6162088;23;19998;-85
2021/12/05 12:08:15;;;;;;;;;;;;;;;;;;;;;
2021/12/05 12:11:17;;;;;;;18.23;9.40;;;5.60;99.90;;;;;;6191981;23;20005;-85
2021/12/05 12:13:50;;;;;;;18.70;10.02;;;4.90;99.90;;;;;;6167506;23;20076;-85
2021/12/05 12:16:21;;;;;;;19.00;10.10;;;;;;;;;;6144323;23;20029;-87
2021/12/05 12:19:08;;;;;;;22.00;10.13;;;5.60;99.90;;;;;;6168047;23;20028;-85
2021/12/05 12:21:43;;;;;;;22.38;10.10;;;5.60;99.90;;;;;;6141668;23;20008;-85
2021/12/05 12:24:17;;;;;;;21.15;9.15;;;5.60;99.90;;;;;;6144682;23;20028;-85
2021/12/05 12:29:50;;;;;;;20.67;9.70;;;5.80;99.90;;;;;;6193850;23;20009;-85
2021/12/05 12:32:33;;;;;;;21.05;9.55;;;5.70;99.90;;;;;;6144555;23;20011;-86
2021/12/05 12:35:25;;;;;;;21.33;9.70;;;5.80;99.90;;;;;;6145210;23;20040;-85
2021/12/05 12:38:32;;;;;;;19.75;9.30;;;5.90;99.90;;;;;;6171783;23;20618;-84
2021/12/05 12:41:13;;;;;;;18.67;9.07;;;5.90;99.90;;;;;;6123010;23;20017;-85
2021/12/05 12:43:53;;;;;;;19.92;9.68;;;5.80;99.90;;;;;;6166444;23;20037;-86
2021/12/05 12:46:26;;;;;;;15.90;8.05;;;5.90;99.90;;;;;;6115814;23;19994;-85
2021/12/05 12:49:00;;;;;;;17.00;8.63;;;5.90;99.90;;;;;;6140973;23;20005;-83
2021/12/05 12:51:34;;;;;;;18.45;8.27;;;6.00;99.90;;;;;;6116474;23;20007;-85
2021/12/05 12:54:14;;;;;;;16.45;7.70;;;5.90;99.90;;;;;;6165586;23;20036;-85
2021/12/05 12:56:59;;;;;;;17.17;7.85;;;5.80;99.90;;;;;;6165122;23;20005;-85
2021/12/05 12:59:30;;;;;;;18.77;8.90;;;5.90;99.90;;;;;;6164917;23;20012;-84
2021/12/05 13:12:58;;;;;;;18.63;8.15;;;5.90;99.90;;;;;;6166674;23;20056;-85
2021/12/05 13:15:40;;;;;;;16.50;8.00;;;5.90;99.90;;;;;;6115710;23;20171;-84
2021/12/05 13:18:21;;;;;;;16.13;7.65;;;5.80;99.90;;;;;;6140757;23;20006;-85
2021/12/05 13:20:57;;;;;;;15.55;8.02;;;7.40;99.90;;;;;;6164892;23;20262;-85
2021/12/05 13:23:50;;;;;;;18.45;8.48;;;5.90;99.90;;;;;;6140418;23;20002;-85
2021/12/05 13:26:34;;;;;;;16.80;7.40;;;5.50;99.90;;;;;;6139805;23;20033;-86
2021/12/05 13:29:20;;;;;;;14.00;7.22;;;5.90;99.90;;;;;;6139411;23;20012;-85
2021/12/05 13:32:15;;;;;;;15.70;7.22;;;5.90;99.90;;;;;;6140422;23;20005;-85
2021/12/05 13:34:41;;;;;;;14.02;6.95;;;6.00;99.90;;;;;;6140067;23;20240;-85
2021/12/05 13:37:10;;;;;;;19.60;7.22;;;6.10;99.90;;;;;;6139996;23;20104;-85
2021/12/05 13:40:06;;;;;;;15.18;6.70;;;6.00;99.90;;;;;;6144656;23;20009;-85
2021/12/05 13:42:36;;;;;;;14.80;6.88;;;4.80;99.90;;;;;;6169654;23;20012;-84
2021/12/05 13:45:11;;;;;;;14.80;6.82;;;;;;;;;;6169742;23;20005;-85
2021/12/05 13:47:51;;;;;;;14.75;7.20;;;6.10;99.90;;;;;;6169844;23;20007;-84
2021/12/05 13:52:49;;;;;;;16.50;7.28;;;6.00;99.90;;;;;;6196122;23;20031;-84
2021/12/05 13:55:58;;;;;;;14.35;7.35;;;5.90;99.90;;;;;;6193760;23;20029;-85
2021/12/05 13:58:43;;;;;;;14.07;7.30;;;5.90;99.90;;;;;;6143849;23;20005;-85
2021/12/05 14:01:29;;;;;;;16.80;8.15;;;;;;;;;;6192210;23;19993;-85
2021/12/05 14:04:10;;;;;;;16.65;8.38;;;;;;;;;;6169257;23;20002;-84
2021/12/05 14:06:36;;;;;;;17.88;8.23;;;;;;;;;;6167503;23;20050;-85
2021/12/05 14:09:15;;;;;;;23.27;9.05;;;;;;;;;;6168035;23;20012;-85
2021/12/05 14:12:13;;;;;;;20.88;9.18;;;5.60;99.90;;;;;;6167030;23;20296;-84
2021/12/05 14:14:53;;;;;;;15.48;8.00;;;5.50;99.90;;;;;;6154155;23;20012;-85
2021/12/05 14:18:01;;;;;;;20.35;9.10;;;5.50;99.90;;;;;;6165840;23;20291;-85
2021/12/05 14:20:40;;;;;;;20.85;9.40;;;7.90;99.90;;;;;;6191734;23;20005;-84
2021/12/05 14:23:47;;;;;;;19.10;9.20;;;5.40;99.90;;;;;;6194074;23;19997;-84
2021/12/05 14:29:26;;;;;;;24.83;10.23;;;5.30;99.90;;;;;;6183461;23;20155;-85
2021/12/05 14:32:22;;;;;;;18.25;9.52;;;5.30;99.90;;;;;;6167574;23;20005;-85
2021/12/05 14:35:14;;;;;;;20.20;9.73;;;5.20;99.90;;;;;;6167710;23;20059;-85
2021/12/05 14:37:43;;;;;;;20.17;10.43;;;5.20;99.90;;;;;;6136760;23;20012;-85
2021/12/05 14:45:26;;;;;;;22.70;9.85;;;5.20;99.90;;;;;;4745599;27;10001318;-84
2021/12/05 14:48:07;;;;;;;20.88;9.98;;;5.20;99.90;;;;;;5079814;28;20313;-83
2021/12/05 14:50:40;;;;;;;21.58;10.70;;;5.20;99.90;;;;;;5084365;28;20029;-83
2021/12/05 14:53:18;;;;;;;;;;;5.10;99.90;;;;;;5104792;28;20047;-84
2021/12/05 14:55:56;;;;;;;21.13;10.45;;;5.10;99.90;;;;;;5077143;28;20020;-84
2021/12/05 14:58:22;;;;;;;21.33;10.48;;;5.00;99.90;;;;;;5095988;28;20027;-83
2021/12/05 15:00:51;;;;;;;20.55;10.85;;;5.10;99.90;;;;;;5084300;28;20016;-83
2021/12/05 15:03:22;;;;;;;24.90;11.65;;;4.80;99.90;;;;;;5080537;28;20032;-83
2021/12/05 15:06:00;;;;;;;23.13;11.02;;;5.10;99.90;;;;;;5085671;28;20040;-84
2021/12/05 15:08:41;;;;;;;21.13;10.43;;;5.10;99.90;;;;;;5071577;28;20021;-83
2021/12/05 15:11:19;;;;;;;22.48;10.73;;;5.10;99.90;;;;;;5077424;28;20020;-83
2021/12/05 15:13:51;;;;;;;22.05;10.70;;;;;;;;;;5070427;28;20024;-84
2021/12/05 15:16:38;;;;;;;21.13;10.60;;;;;;;;;;5069937;28;20052;-83
2021/12/05 15:19:20;;;;;;;23.73;10.88;;;5.00;99.90;;;;;;5078246;28;20029;-84
2021/12/05 15:21:50;;;;;;;19.25;10.88;;;5.00;99.90;;;;;;5049054;28;20037;-83
2021/12/05 15:24:36;;;;;;;25.27;11.73;;;5.00;99.90;;;;;;5038215;28;20284;-84
2021/12/05 15:27:17;;;;;;;22.17;10.82;;;5.00;99.90;;;;;;5066245;28;20231;-84
2021/12/05 15:29:50;;;;;;;21.65;10.80;;;;;;;;;;5072648;28;20028;-84
2021/12/05 15:32:30;;;;;;;19.98;11.18;;;5.00;99.90;;;;;;5073259;28;20195;-84
2021/12/05 15:34:58;;;;;;;20.17;11.32;;;5.00;99.90;;;;;;5075192;28;20274;-84
2021/12/05 15:37:58;;;;;;;25.75;12.00;;;4.90;99.90;;;;;;5095313;28;20055;-83
2021/12/05 15:40:37;;;;;;;22.08;11.07;;;;;;;;;;5069003;28;20316;-83
2021/12/05 15:43:31;;;;;;;22.60;11.23;;;5.00;99.90;;;;;;5068778;28;20037;-84
2021/12/05 15:46:11;;;;;;;;;;;;;;;;;;;;;
2021/12/05 15:48:55;;;;;;;23.77;11.32;;;4.90;99.90;;;;;;5082937;28;20036;-83
2021/12/05 15:51:28;;;;;;;24.90;11.27;;;;;;;;;;5063428;28;20087;-83
2021/12/05 15:53:58;;;;;;;23.50;12.02;;;4.90;99.90;;;;;;5068287;28;20012;-83
2021/12/05 15:57:02;;;;;;;25.02;12.00;;;4.90;99.90;;;;;;5074698;28;20082;-84
2021/12/05 15:59:43;;;;;;;20.52;11.43;;;4.90;99.90;;;;;;5055352;28;20044;-83
2021/12/05 16:02:51;;;;;;;;;;;;;;;;;;;;;
2021/12/05 16:05:41;;;;;;;24.05;11.63;;;4.90;99.90;;;;;;5064921;28;20234;-84
2021/12/05 16:08:38;;;;;;;21.10;11.93;;;4.90;99.90;;;;;;5051898;28;20139;-83
2021/12/05 16:11:31;;;;;;;25.50;13.00;;;4.90;99.90;;;;;;5045374;28;20021;-83
2021/12/05 16:14:06;;;;;;;22.17;12.30;;;4.80;99.90;;;;;;5032417;28;20064;-83
2021/12/05 16:16:39;;;;;;;23.10;13.23;;;4.80;99.90;;;;;;5056216;28;20038;-85
2021/12/05 16:19:21;;;;;;;24.63;14.20;;;4.80;99.90;;;;;;5077503;28;20174;-84
2021/12/05 16:22:02;;;;;;;;;;;;;;;;;;;;;
2021/12/05 16:24:43;;;;;;;26.63;13.75;;;4.70;99.90;;;;;;5074524;28;20040;-84
2021/12/05 16:27:17;;;;;;;27.02;14.05;;;4.60;99.90;;;;;;5044615;28;20029;-83
2021/12/05 16:29:48;;;;;;;24.23;14.32;;;4.60;99.90;;;;;;5043219;28;20045;-83
2021/12/05 16:32:26;;;;;;;22.30;13.43;;;;;;;;;;5057625;28;20032;-83
2021/12/05 16:35:15;;;;;;;27.20;13.82;;;;;;;;;;5055990;28;20040;-83
2021/12/05 16:37:51;;;;;;;26.45;13.20;;;4.60;99.90;;;;;;5056778;28;20042;-84
2021/12/05 16:40:48;;;;;;;32.35;14.02;;;4.60;99.90;;;;;;5055616;28;20312;-83
2021/12/05 16:43:38;;;;;;;27.10;13.80;;;4.60;99.90;;;;;;5057810;28;20041;-83
2021/12/05 16:46:55;;;;;;;28.63;14.99;;;4.50;99.90;;;;;;4710235;28;10000620;-83
2021/12/05 16:49:33;;;;;;;27.75;14.55;;;4.50;99.90;;;;;;5047299;28;20033;-83
2021/12/05 16:52:32;;;;;;;26.35;14.80;;;4.50;99.90;;;;;;5063861;28;20023;-84
2021/12/05 16:55:19;;;;;;;25.60;14.07;;;4.40;99.90;;;;;;5080951;28;20087;-84
2021/12/05 16:58:16;;;;;;;24.98;13.25;;;4.40;99.90;;;;;;5069336;28;20029;-84
2021/12/05 17:01:10;;;;;;;24.63;14.45;;;4.40;99.90;;;;;;5061966;28;20032;-84
2021/12/05 17:04:11;;;;;;;23.95;13.98;;;4.50;99.90;;;;;;5060478;28;20025;-83
2021/12/05 17:06:59;;;;;;;21.75;13.57;;;4.50;99.90;;;;;;5060291;28;20032;-83
2021/12/05 17:09:41;;;;;;;23.90;13.27;;;4.50;99.90;;;;;;5065040;28;20032;-85
2021/12/05 17:12:33;;;;;;;23.60;13.88;;;4.30;99.90;;;;;;5055055;28;20024;-83
2021/12/05 17:15:19;;;;;;;20.95;13.75;;;4.40;99.90;;;;;;5065241;28;20032;-84
2021/12/05 17:18:03;;;;;;;21.05;12.63;;;4.60;99.90;;;;;;5064429;28;20024;-84
2021/12/05 17:21:01;;;;;;;20.92;12.35;;;4.20;99.90;;;;;;5062925;28;20092;-83
2021/12/05 17:24:07;;;;;;;21.45;11.98;;;4.20;99.90;;;;;;5067648;28;20017;-84
2021/12/05 17:26:47;;;;;;;21.17;12.57;;;4.20;99.90;;;;;;5054692;28;20092;-84
2021/12/05 17:29:30;;;;;;;22.85;12.63;;;;;;;;;;5059135;28;20059;-83
2021/12/05 17:32:11;;;;;;;22.58;12.52;;;4.20;99.90;;;;;;5069290;28;20056;-84
2021/12/05 17:34:57;;;;;;;20.42;12.40;;;4.20;99.90;;;;;;5045597;28;20020;-84
2021/12/05 17:37:50;;;;;;;22.42;12.13;;;4.10;99.90;;;;;;5060907;28;20025;-83
2021/12/05 17:40:27;;;;;;;24.40;13.40;;;4.10;99.90;;;;;;5044456;28;20021;-84
2021/12/05 17:43:06;;;;;;;;;;;;;;;;;;;;;
2021/12/05 17:45:37;;;;;;;22.95;12.93;;;;;;;;;;5071987;28;20033;-83
2021/12/05 17:48:16;;;;;;;23.60;12.98;;;4.00;99.90;;;;;;5056206;28;20033;-84
2021/12/05 17:50:48;;;;;;;20.45;12.50;;;2.80;99.90;;;;;;5039170;28;20104;-84
2021/12/05 17:59:13;;;;;;;20.73;13.25;;;3.80;99.90;;;;;;5053136;28;20071;-83
2021/12/05 18:04:37;;;;;;;19.20;11.65;;;3.60;99.90;;;;;;5054785;28;20275;-84
2021/12/05 18:07:03;;;;;;;22.48;12.52;;;;;;;;;;5060175;28;20063;-83
2021/12/05 18:09:32;;;;;;;20.98;11.32;;;;;;;;;;5076360;28;20040;-83
2021/12/05 18:12:11;;;;;;;;;;;;;;;;;;;;;
2021/12/05 18:14:37;;;;;;;18.58;11.20;;;;;;;;;;5064070;28;20316;-84
2021/12/05 18:17:04;;;;;;;18.65;11.27;;;3.30;99.90;;;;;;5056191;28;20067;-84
2021/12/05 18:19:50;;;;;;;21.98;12.77;;;3.40;99.90;;;;;;5064825;28;20347;-84
2021/12/05 18:22:32;;;;;;;21.58;13.38;;;3.40;99.90;;;;;;5061601;28;20041;-83
2021/12/05 18:25:33;;;;;;;20.55;12.93;;;3.50;99.90;;;;;;5038934;28;20317;-83
2021/12/05 18:28:04;;;;;;;23.20;12.93;;;3.50;99.90;;;;;;5053613;28;20112;-84
2021/12/05 18:30:39;;;;;;;20.58;13.00;;;3.50;99.90;;;;;;5039596;28;20013;-83
2021/12/05 18:33:20;;;;;;;19.48;12.70;;;3.50;99.90;;;;;;5051976;28;20033;-83
2021/12/05 18:36:04;;;;;;;17.75;11.75;;;3.40;99.90;;;;;;5057797;28;20092;-84
2021/12/05 18:38:32;;;;;;;20.33;13.13;;;3.40;99.90;;;;;;5071108;28;20044;-82
2021/12/05 18:41:06;;;;;;;19.83;12.23;;;;;;;;;;5055896;28;20287;-83
2021/12/05 18:44:13;;;;;;;21.42;12.65;;;3.40;99.90;;;;;;5053760;28;20057;-84
2021/12/05 18:46:49;;;;;;;;;;;;;;;;;;;;;
2021/12/05 18:49:28;;;;;;;;;;;;;;;;;;;;;
2021/12/05 18:52:02;;;;;;;22.83;14.23;;;;;;;;;;5049299;28;20025;-83
2021/12/05 18:54:39;;;;;;;22.30;13.77;;;3.30;99.90;;;;;;5052028;28;20204;-83
2021/12/05 18:57:08;;;;;;;27.90;18.70;;;;;;;;;;5042997;28;20024;-84
2021/12/05 18:59:49;;;;;;;26.95;16.05;;;;;;;;;;5054029;28;20024;-83
2021/12/05 19:05:21;;;;;;;23.58;14.10;;;3.30;99.90;;;;;;5070531;28;20029;-83
2021/12/05 19:08:23;;;;;;;22.90;14.75;;;3.30;99.90;;;;;;5061448;28;20066;-83
2021/12/05 19:13:52;;;;;;;21.40;14.30;;;3.20;99.90;;;;;;5068316;28;20507;-83
2021/12/05 19:16:23;;;;;;;21.73;14.43;;;3.30;99.90;;;;;;5052520;28;20025;-83
2021/12/05 19:18:54;;;;;;;19.00;12.68;;;3.30;99.90;;;;;;5059704;28;20020;-82
2021/12/05 19:24:31;;;;;;;19.90;13.40;;;3.20;99.90;;;;;;5059367;28;20032;-82
2021/12/05 19:27:18;;;;;;;;;;;;;;;;;;;;;
2021/12/05 19:30:16;;;;;;;22.15;14.43;;;3.20;99.90;;;;;;5072339;28;20034;-83
2021/12/05 19:32:49;;;;;;;21.00;13.32;;;3.20;99.90;;;;;;5058141;28;20077;-83
2021/12/05 19:35:23;;;;;;;19.48;13.63;;;;;;;;;;5063903;28;20056;-82
2021/12/05 19:38:24;;;;;;;20.23;13.70;;;3.20;99.90;;;;;;5075997;28;20028;-83
2021/12/05 19:40:53;;;;;;;19.60;13.45;;;3.20;99.90;;;;;;5057298;28;20017;-83
2021/12/05 19:43:34;;;;;;;16.05;10.65;;;3.20;99.90;;;;;;5059135;28;20114;-83
2021/12/05 19:46:19;;;;;;;14.57;9.65;;;3.10;99.90;;;;;;5047835;28;20032;-83
2021/12/05 19:48:49;;;;;;;13.27;8.52;;;3.10;99.90;;;;;;5055424;28;20091;-83
2021/12/05 19:51:35;;;;;;;13.55;8.50;;;3.10;99.90;;;;;;5057769;28;20020;-84
2021/12/05 19:54:17;;;;;;;;;;;;;;;;;;;;;
2021/12/05 19:56:54;;;;;;;12.90;8.15;;;3.00;99.90;;;;;;5070674;28;19905;-82
2021/12/05 19:59:25;;;;;;;13.75;8.82;;;3.00;99.90;;;;;;5071511;28;20021;-83
2021/12/05 20:01:53;;;;;;;13.50;8.20;;;3.00;99.90;;;;;;5064301;28;20039;-82
2021/12/05 20:05:04;;;;;;;13.23;7.93;;;2.90;99.90;;;;;;5057026;28;20040;-84
2021/12/05 20:07:42;;;;;;;12.10;7.35;;;;;;;;;;5057819;28;20017;-83
2021/12/05 20:10:31;;;;;;;14.38;9.60;;;2.80;99.90;;;;;;5062554;28;20021;-81
2021/12/05 20:12:58;;;;;;;13.45;8.57;;;;;;;;;;5077807;28;20074;-83